This is the latest recevied weather packets stored in our database for station/object OE-11331. If no packets are shown the sender has not sent any weather packets the latest 10 day(s).
| Time | Temp. | Humidity | Pressure | Rain* | Wind** | Luminosity | Snow |
|---|---|---|---|---|---|---|---|
| 1788158508 | 18.89° C | 76% | 1016.2 hPa | 0 mm | - | 292 W/m² | - |
| 1788158134 | 17.78° C | 78% | 1016.3 hPa | 0 mm | - | 271 W/m² | - |
| 1788157534 | 17.22° C | 79% | 1016.4 hPa | 0 mm | - | 238 W/m² | - |
| 1788156707 | 17.22° C | 79% | 1016.4 hPa | 0 mm | - | 206 W/m² | - |
| 1788156335 | 16.67° C | 81% | 1016.4 hPa | 0 mm | - | 173 W/m² | - |
| 1788155735 | 16.11° C | 85% | 1016.6 hPa | 0 mm | - | 152 W/m² | - |
| 1788154908 | 15.56° C | 87% | 1016.7 hPa | 0 mm | - | 119 W/m² | - |
| 1788154534 | 15.56° C | 88% | 1016.7 hPa | 0 mm | - | 97 W/m² | - |
| 1788153934 | 15° C | 89% | 1016.8 hPa | 0 mm | - | 76 W/m² | - |
| 1788153108 | 15° C | 90% | 1016.8 hPa | 0 mm | - | 43 W/m² | - |
| 1788152735 | 14.44° C | 90% | 1016.8 hPa | 0 mm | - | 22 W/m² | - |
| 1788152134 | 14.44° C | 91% | 1016.7 hPa | 0 mm | - | 11 W/m² | - |
| 1788151307 | 14.44° C | 91% | 1016.8 hPa | 0 mm | - | 11 W/m² | - |
| 1788150935 | 14.44° C | 90% | 1016.8 hPa | 0 mm | - | 0 W/m² | - |
| 1788150335 | 14.44° C | 91% | 1016.7 hPa | 0 mm | - | 0 W/m² | - |
| 1788149746 | 15° C | 90% | 1016.7 hPa | 0 mm | - | 0 W/m² | - |
| 1788149135 | 15° C | 90% | 1016.7 hPa | 0 mm | - | 0 W/m² | - |
| 1788148534 | 15° C | 90% | 1016.7 hPa | 0 mm | - | 0 W/m² | - |
| 1788147935 | 15° C | 90% | 1016.7 hPa | 0 mm | - | 0 W/m² | - |
| 1788147335 | 15° C | 90% | 1016.7 hPa | 0 mm | - | 0 W/m² | - |
| 1788146735 | 15° C | 90% | 1016.8 hPa | 0 mm | - | 0 W/m² | - |
| 1788145907 | 15° C | 90% | 1016.8 hPa | 0 mm | - | 0 W/m² | - |
| 1788145534 | 15° C | 89% | 1016.7 hPa | 0 mm | - | 0 W/m² | - |
| 1788144934 | 15° C | 89% | 1016.8 hPa | 0 mm | - | 0 W/m² | - |
| 1788144107 | 15.56° C | 88% | 1016.7 hPa | 0 mm | - | 0 W/m² | - |
* Rain latest hour (hover to see other rain measurements)
** Current wind speed in m/s (hover to see current wind gust speed)